Time;durP1;ratioP1;P1;durP2;ratioP2;P2;SDS_P1;SDS_P2;PMS_P1;PMS_P2;Temp;Humidity;BMP_temperature;BMP_pressure;BME280_temperature;BME280_humidity;BME280_pressure;Samples;Min_cycle;Max_cycle;Signal;HPM_P1;HPM_P2
2022/04/07 00:02:45;;;;;;;;;;;10.80;99.90;;;;;;6227219;22;19913;-89
2022/04/07 00:08:07;;;;;;;;;;;10.80;99.90;;;;;;6279560;22;19925;-90
2022/04/07 00:10:44;;;;;;;;;;;10.80;99.90;;;;;;6252530;22;20306;-90
2022/04/07 00:13:28;;;;;;;;;;;10.80;99.90;;;;;;6251857;22;19904;-90
2022/04/07 00:16:16;;;;;;;;;;;10.70;99.90;;;;;;6226358;22;19915;-89
2022/04/07 00:18:57;;;;;;;;;;;10.70;99.90;;;;;;6227246;22;19909;-90
2022/04/07 00:21:58;;;;;;;;;;;;;;;;;;;;;
2022/04/07 00:24:45;;;;;;;;;;;10.70;99.90;;;;;;6278822;22;20016;-89
2022/04/07 00:27:10;;;;;;;;;;;10.70;99.90;;;;;;6225000;22;19904;-89
2022/04/07 00:29:38;;;;;;;;;;;10.70;99.90;;;;;;6250591;22;19907;-89
2022/04/07 00:32:16;;;;;;;;;;;10.70;99.90;;;;;;6278230;22;19911;-88
2022/04/07 00:35:08;;;;;;;;;;;10.70;99.90;;;;;;6226423;22;19942;-89
2022/04/07 00:37:41;;;;;;;;;;;10.60;99.90;;;;;;6255244;22;19908;-89
2022/04/07 00:40:34;;;;;;;;;;;10.60;99.90;;;;;;6251238;22;19941;-88
2022/04/07 00:43:09;;;;;;;;;;;10.60;99.90;;;;;;6232446;22;19903;-89
2022/04/07 00:46:11;;;;;;;;;;;;;;;;;;;;;
2022/04/07 00:48:47;;;;;;;;;;;10.60;99.90;;;;;;6278061;22;20035;-89
2022/04/07 00:51:49;;;;;;;;;;;;;;;;;;;;;
2022/04/07 00:54:32;;;;;;;;;;;10.60;99.90;;;;;;6125179;23;19988;-89
2022/04/07 00:57:16;;;;;;;;;;;10.60;99.90;;;;;;6251187;22;19903;-90
2022/04/07 01:03:21;;;;;;;;;;;;;;;;;;;;;
2022/04/07 01:05:56;;;;;;;;;;;10.60;99.90;;;;;;6270499;22;19989;-89
2022/04/07 01:08:34;;;;;;;;;;;;;;;;;;;;;
2022/04/07 01:14:22;;;;;;;;;;;10.50;99.90;;;;;;6207322;22;19903;-89
2022/04/07 01:20:13;;;;;;;;;;;10.50;99.90;;;;;;6256490;22;19935;-89
2022/04/07 01:22:48;;;;;;;;;;;10.50;99.90;;;;;;6251560;22;19910;-89
2022/04/07 01:25:19;;;;;;;;;;;10.40;99.90;;;;;;6252171;22;20003;-89
2022/04/07 01:27:49;;;;;;;;;;;10.40;99.90;;;;;;6281727;22;19978;-90
2022/04/07 01:30:34;;;;;;;;;;;10.30;99.90;;;;;;6274476;22;19914;-89
2022/04/07 01:36:39;;;;;;;;;;;10.30;99.90;;;;;;6268314;22;19908;-90
2022/04/07 01:39:09;;;;;;;;;;;10.30;99.90;;;;;;6277883;22;20232;-89
2022/04/07 01:41:47;;;;;;;;;;;10.30;99.90;;;;;;6229089;22;19922;-89
2022/04/07 01:44:19;;;;;;;;;;;10.20;99.90;;;;;;6252904;22;20236;-89
2022/04/07 01:47:15;;;;;;;;;;;;;;;;;;;;;
2022/04/07 01:52:53;;;;;;;;;;;;;;;;;;;;;
2022/04/07 01:55:36;;;;;;;;;;;;;;;;;;;;;
2022/04/07 01:58:08;;;;;;;;;;;10.20;99.90;;;;;;6255343;22;20290;-89
2022/04/07 02:01:00;;;;;;;;;;;10.10;99.90;;;;;;6252849;22;19938;-89
2022/04/07 02:03:45;;;;;;;;;;;10.20;99.90;;;;;;6185139;22;19907;-89
2022/04/07 02:06:30;;;;;;;;;;;10.20;99.90;;;;;;6230312;22;19929;-89
2022/04/07 02:09:12;;;;;;;;;;;10.20;99.90;;;;;;6252694;22;19922;-90
2022/04/07 02:14:59;;;;;;;;;;;10.10;99.90;;;;;;6232221;22;19910;-89
2022/04/07 02:24:10;;;;;;;;;;;10.10;99.90;;;;;;6252936;22;20343;-89
2022/04/07 02:29:40;;;;;;;;;;;10.10;99.90;;;;;;6253014;22;19903;-89
2022/04/07 02:35:16;;;;;;;;;;;10.10;99.90;;;;;;6241703;22;19918;-89
2022/04/07 02:40:47;;;;;;;;;;;10.20;99.90;;;;;;6207560;22;19955;-89
2022/04/07 02:43:23;;;;;;;;;;;10.10;99.90;;;;;;6252934;22;19911;-89
2022/04/07 02:45:51;;;;;;;;;;;10.20;99.90;;;;;;6227998;22;20199;-90
2022/04/07 02:51:33;;;;;;;;;;;;;;;;;;;;;
2022/04/07 02:54:04;;;;;;;;;;;10.10;99.90;;;;;;6280429;22;19970;-89
2022/04/07 02:57:03;;;;;;;;;;;;;;;;;;;;;
2022/04/07 02:59:59;;;;;;;;;;;;;;;;;;;;;
2022/04/07 03:02:40;;;;;;;;;;;10.20;99.90;;;;;;6301387;22;19906;-88
2022/04/07 03:05:08;;;;;;;;;;;10.20;99.90;;;;;;6279720;22;19898;-89
2022/04/07 03:08:03;;;;;;;;;;;10.20;99.90;;;;;;6278903;22;19904;-90
2022/04/07 03:10:58;;;;;;;;;;;10.20;99.90;;;;;;6275863;22;19915;-86
2022/04/07 03:13:38;;;;;;;;;;;10.20;99.90;;;;;;6253399;22;19913;-88
2022/04/07 03:16:24;;;;;;;;;;;;;;;;;;;;;
2022/04/07 03:18:57;;;;;;;;;;;10.20;99.90;;;;;;6255402;22;19998;-89
2022/04/07 03:24:30;;;;;;;;;;;10.20;99.90;;;;;;6235597;22;19934;-89
2022/04/07 03:29:53;;;;;;;;;;;10.20;99.90;;;;;;6257828;22;19903;-89
2022/04/07 03:32:41;;;;;;;;;;;10.20;99.90;;;;;;6252399;22;19978;-88
2022/04/07 03:35:40;;;;;;;;;;;;;;;;;;;;;
2022/04/07 03:38:38;;;;;;;;;;;10.20;99.90;;;;;;6278692;22;19978;-90
2022/04/07 03:41:08;;;;;;;;;;;10.20;99.90;;;;;;6254066;22;19915;-88
2022/04/07 03:43:45;;;;;;;;;;;10.20;99.90;;;;;;6252771;22;19904;-89
2022/04/07 03:46:21;;;;;;;;;;;;;;;;;;;;;
2022/04/07 03:49:07;;;;;;;;;;;10.20;99.90;;;;;;6279168;22;19987;-89
2022/04/07 03:52:00;;;;;;;;;;;;;;;;;;;;;
2022/04/07 03:54:38;;;;;;;;;;;10.20;99.90;;;;;;6254173;22;20292;-90
2022/04/07 03:57:33;;;;;;;;;;;10.20;99.90;;;;;;6252125;22;20324;-89
2022/04/07 04:00:01;;;;;;;;;;;10.20;99.90;;;;;;6234612;22;19911;-87
2022/04/07 04:02:31;;;;;;;;;;;10.20;99.90;;;;;;6251777;22;19903;-87
2022/04/07 04:05:00;;;;;;;;;;;10.20;99.90;;;;;;6251946;22;19911;-87
2022/04/07 04:07:42;;;;;;;;;;;10.20;99.90;;;;;;6251747;22;19903;-86
2022/04/07 04:10:27;;;;;;;;;;;10.10;99.90;;;;;;6225597;22;20253;-87
2022/04/07 04:12:55;;;;;;;;;;;10.10;99.90;;;;;;6252522;22;19968;-87
2022/04/07 04:15:38;;;;;;;;;;;10.10;99.90;;;;;;6248876;22;19910;-88
2022/04/07 04:18:04;;;;;;;;;;;10.20;99.90;;;;;;6227073;22;20306;-88
2022/04/07 04:20:55;;;;;;;;;;;10.20;99.90;;;;;;6251773;22;19938;-89
2022/04/07 04:23:31;;;;;;;;;;;10.20;99.90;;;;;;6250914;22;19903;-91
2022/04/07 04:29:29;;;;;;;;;;;10.20;99.90;;;;;;6251435;22;19931;-89
2022/04/07 04:32:17;;;;;;;;;;;10.20;99.90;;;;;;6279092;22;19903;-87
2022/04/07 04:35:10;;;;;;;;;;;10.20;99.90;;;;;;6180049;22;19910;-89
2022/04/07 04:38:05;;;;;;;;;;;10.20;99.90;;;;;;6247171;22;19919;-89
2022/04/07 04:40:43;;;;;;;;;;;10.20;99.90;;;;;;6281200;22;19907;-88
2022/04/07 04:43:38;;;;;;;;;;;;;;;;;;;;;
2022/04/07 04:46:37;;;;;;;;;;;;;;;;;;;;;
2022/04/07 04:58:46;;;;;;;;;;;10.30;99.90;;;;;;6106655;23;20353;-89
2022/04/07 05:01:32;;;;;;;;;;;10.20;99.90;;;;;;6101520;23;19920;-89
2022/04/07 05:04:40;;;;;;;;;;;;;;;;;;;;;
2022/04/07 05:10:24;;;;;;;;;;;10.30;99.90;;;;;;6214964;22;19915;-88
2022/04/07 05:13:17;;;;;;;;;;;;;;;;;;;;;
2022/04/07 05:31:22;;;;;;;;;;;10.40;99.90;;;;;;6125026;23;19912;-89
2022/04/07 05:33:48;;;;;;;;;;;10.30;99.90;;;;;;6124828;23;19909;-89
2022/04/07 05:36:22;;;;;;;;;;;10.30;99.90;;;;;;6100522;23;19905;-89
2022/04/07 05:38:58;;;;;;;;;;;10.30;99.90;;;;;;6100679;23;19908;-89
2022/04/07 05:41:49;;;;;;;;;;;10.30;99.90;;;;;;6100805;23;19913;-90
2022/04/07 05:53:10;;;;;;;;;;;10.30;99.90;;;;;;6226275;22;19911;-88
2022/04/07 05:56:04;;;;;;;;;;;10.30;99.90;;;;;;6246378;23;20329;-89
2022/04/07 06:01:42;;;;;;;;;;;10.30;99.90;;;;;;6223657;22;19911;-89
2022/04/07 06:07:24;;;;;;;;;;;10.30;99.90;;;;;;6247837;22;19910;-90
2022/04/07 06:10:10;;;;;;;;;;;;;;;;;;;;;
2022/04/07 06:12:52;;;;;;;;;;;;;;;;;;;;;
2022/04/07 06:21:33;;;;;;;;;;;;;;;;;;;;;
2022/04/07 06:24:38;;;;;;;;;;;;;;;;;;;;;
2022/04/07 06:27:09;;;;;;;;;;;10.30;99.90;;;;;;6284339;22;19926;-90
2022/04/07 06:30:05;;;;;;;;;;;;;;;;;;;;;
2022/04/07 06:32:43;;;;;;;;;;;;;;;;;;;;;
2022/04/07 06:35:36;;;;;;;;;;;10.30;99.90;;;;;;6255778;22;19986;-90
2022/04/07 06:38:07;;;;;;;;;;;10.30;99.90;;;;;;6253431;22;19911;-90
2022/04/07 06:43:54;;;;;;;;;;;10.30;99.90;;;;;;6266495;22;20265;-90
2022/04/07 06:46:42;;;;;;;;;;;10.30;99.90;;;;;;6252082;22;19929;-89
2022/04/07 06:49:32;;;;;;;;;;;10.20;99.90;;;;;;6253162;22;19903;-91
2022/04/07 07:01:41;;;;;;;;;;;;;;;;;;;;;
2022/04/07 07:04:37;;;;;;;;;;;;;;;;;;;;;
2022/04/07 07:07:16;;;;;;;;;;;;;;;;;;;;;
2022/04/07 07:12:33;;;;;;;;;;;10.30;99.90;;;;;;6258562;22;19915;-91
2022/04/07 07:21:25;;;;;;;;;;;9.80;99.90;;;;;;6257493;22;20003;-90
2022/04/07 07:24:10;;;;;;;;;;;9.60;99.90;;;;;;6252761;22;19938;-92
2022/04/07 07:27:12;;;;;;;;;;;;;;;;;;;;;
2022/04/07 07:30:34;;;;;;;;;;;9.10;99.90;;;;;;6279426;22;20365;-91
2022/04/07 07:33:25;;;;;;;;;;;8.90;99.90;;;;;;6274933;22;19910;-90
2022/04/07 07:35:58;;;;;;;;;;;8.80;99.90;;;;;;6230862;22;19907;-90
2022/04/07 07:38:50;;;;;;;;;;;8.60;99.90;;;;;;6253338;22;19903;-91
2022/04/07 07:44:35;;;;;;;;;;;8.50;99.90;;;;;;6241805;22;19975;-91
2022/04/07 07:47:24;;;;;;;;;;;8.50;99.90;;;;;;6254935;22;20033;-90
2022/04/07 07:53:19;;;;;;;;;;;;;;;;;;;;;
2022/04/07 08:02:36;;;;;;;;;;;;;;;;;;;;;
2022/04/07 08:08:10;;;;;;;;;;;8.30;99.90;;;;;;6263535;22;19911;-89
2022/04/07 08:11:03;;;;;;;;;;;8.20;99.90;;;;;;6251510;22;19941;-90
2022/04/07 08:13:51;;;;;;;;;;;8.20;99.90;;;;;;6278656;22;19907;-90
2022/04/07 08:16:53;;;;;;;;;;;8.10;99.90;;;;;;6253845;22;19934;-89
2022/04/07 08:19:48;;;;;;;;;;;8.10;99.90;;;;;;6252792;22;20314;-89
2022/04/07 08:22:41;;;;;;;;;;;;;;;;;;;;;
2022/04/07 08:28:44;;;;;;;;;;;8.10;99.90;;;;;;6222399;22;19903;-89
2022/04/07 08:31:25;;;;;;;;;;;;;;;;;;;;;
2022/04/07 08:34:16;;;;;;;;;;;;;;;;;;;;;
2022/04/07 08:37:15;;;;;;;;;;;;;;;;;;;;;
2022/04/07 08:40:22;;;;;;;;;;;8.20;99.90;;;;;;6278547;22;19979;-89
2022/04/07 08:43:38;;;;;;;;;;;;;;;;;;;;;
2022/04/07 08:49:18;;;;;;;;;;;;;;;;;;;;;
2022/04/07 08:51:59;;;;;;;;;;;;;;;;;;;;;
2022/04/07 08:54:54;;;;;;;;;;;8.50;99.90;;;;;;6254827;22;19982;-90
2022/04/07 08:58:17;;;;;;;;;;;;;;;;;;;;;
2022/04/07 09:01:03;;;;;;;;;;;8.70;99.90;;;;;;6272833;22;20340;-89
2022/04/07 09:06:49;;;;;;;;;;;8.90;99.90;;;;;;6185079;23;19904;-89
2022/04/07 09:13:02;;;;;;;;;;;;;;;;;;;;;
2022/04/07 09:15:45;;;;;;;;;;;;;;;;;;;;;
2022/04/07 09:18:33;;;;;;;;;;;9.50;99.90;;;;;;6244473;22;19952;-90
2022/04/07 09:21:21;;;;;;;;;;;9.50;99.90;;;;;;6260230;22;19911;-91
2022/04/07 09:24:07;;;;;;;;;;;;;;;;;;;;;
2022/04/07 09:26:36;;;;;;;;;;;9.60;99.90;;;;;;6304451;22;19908;-91
2022/04/07 09:29:56;;;;;;;;;;;;;;;;;;;;;
2022/04/07 09:32:27;;;;;;;;;;;9.70;99.90;;;;;;6284464;22;19918;-90
2022/04/07 09:35:16;;;;;;;;;;;9.90;99.90;;;;;;6251435;22;19903;-90
2022/04/07 09:44:30;;;;;;;;;;;;;;;;;;;;;
2022/04/07 09:47:19;;;;;;;;;;;;;;;;;;;;;
2022/04/07 09:50:18;;;;;;;;;;;;;;;;;;;;;
2022/04/07 09:59:12;;;;;;;;;;;;;;;;;;;;;
2022/04/07 10:02:29;;;;;;;;;;;;;;;;;;;;;
2022/04/07 10:05:25;;;;;;;;;;;10.30;99.90;;;;;;6271344;22;19907;-89
2022/04/07 10:08:16;;;;;;;;;;;10.50;99.80;;;;;;6279134;22;19903;-88
2022/04/07 10:11:10;;;;;;;;;;;10.60;99.80;;;;;;6238589;22;19994;-90
2022/04/07 10:14:09;;;;;;;;;;;;;;;;;;;;;
2022/04/07 10:16:47;;;;;;;;;;;10.70;99.30;;;;;;6256618;22;19990;-90
2022/04/07 10:19:24;;;;;;;;;;;10.80;98.90;;;;;;6228708;22;20364;-90
2022/04/07 10:22:06;;;;;;;;;;;10.90;98.30;;;;;;6253037;22;19912;-90
2022/04/07 10:25:04;;;;;;;;;;;;;;;;;;;;;
2022/04/07 10:27:49;;;;;;;;;;;;;;;;;;;;;
2022/04/07 10:30:42;;;;;;;;;;;;;;;;;;;;;
2022/04/07 10:33:38;;;;;;;;;;;;;;;;;;;;;
2022/04/07 10:36:25;;;;;;;;;;;;;;;;;;;;;
2022/04/07 10:39:14;;;;;;;;;;;11.20;96.00;;;;;;6279406;22;20277;-88
2022/04/07 10:42:16;;;;;;;;;;;;;;;;;;;;;
2022/04/07 10:45:09;;;;;;;;;;;11.10;95.90;;;;;;6129777;22;20396;-89
2022/04/07 10:48:05;;;;;;;;;;;;;;;;;;;;;
2022/04/07 10:50:36;;;;;;;;;;;11.10;95.80;;;;;;6279384;22;20373;-89
2022/04/07 10:53:38;;;;;;;;;;;11.10;95.50;;;;;;6252399;22;19946;-89
2022/04/07 11:02:15;;;;;;;;;;;11.20;95.40;;;;;;6284800;22;19919;-89
2022/04/07 11:05:13;;;;;;;;;;;;;;;;;;;;;
2022/04/07 11:08:06;;;;;;;;;;;11.30;95.20;;;;;;6298010;22;19904;-90
2022/04/07 11:13:51;;;;;;;;;;;11.30;94.30;;;;;;6249044;22;19915;-89
2022/04/07 11:16:29;;;;;;;;;;;;;;;;;;;;;
2022/04/07 11:19:24;;;;;;;;;;;11.20;94.00;;;;;;6279513;22;19987;-89
2022/04/07 11:25:10;;;;;;;;;;;11.10;93.40;;;;;;6257590;22;19903;-88
2022/04/07 11:28:05;;;;;;;;;;;11.00;93.30;;;;;;6252661;22;19911;-89
2022/04/07 11:31:00;;;;;;;;;;;11.00;93.60;;;;;;6252003;22;19903;-88
2022/04/07 11:33:52;;;;;;;;;;;11.00;93.80;;;;;;6252553;22;20352;-89
2022/04/07 11:36:48;;;;;;;;;;;11.00;93.90;;;;;;6279644;22;19979;-88
2022/04/07 11:39:23;;;;;;;;;;;11.00;94.00;;;;;;6251493;22;20276;-89
2022/04/07 11:41:59;;;;;;;;;;;11.00;93.90;;;;;;6251776;22;19934;-90
2022/04/07 11:47:48;;;;;;;;;;;10.90;93.20;;;;;;6210130;22;19911;-89
2022/04/07 11:50:37;;;;;;;;;;;10.90;93.10;;;;;;6204206;22;19931;-89
2022/04/07 11:53:31;;;;;;;;;;;10.90;93.30;;;;;;6251641;22;19938;-90
2022/04/07 11:56:21;;;;;;;;;;;;;;;;;;;;;
2022/04/07 11:59:10;;;;;;;;;;;10.90;92.60;;;;;;6279007;22;20369;-89
2022/04/07 12:01:59;;;;;;;;;;;10.90;92.90;;;;;;6252644;22;19965;-89
2022/04/07 12:04:40;;;;;;;;;;;10.90;92.90;;;;;;6279327;22;19903;-89
2022/04/07 12:07:07;;;;;;;;;;;11.00;92.00;;;;;;6227528;22;19993;-89
2022/04/07 12:15:54;;;;;;;;;;;10.90;92.60;;;;;;6222665;22;19907;-89
2022/04/07 12:22:08;;;;;;;;;;;11.00;92.30;;;;;;6221967;22;19922;-89
2022/04/07 12:24:53;;;;;;;;;;;11.00;92.70;;;;;;6251738;22;20233;-90
2022/04/07 12:30:52;;;;;;;;;;;11.00;92.10;;;;;;6253981;22;19931;-89
2022/04/07 12:33:57;;;;;;;;;;;10.90;92.00;;;;;;6280608;22;19914;-90
2022/04/07 12:42:24;;;;;;;;;;;10.90;92.30;;;;;;6258438;22;19942;-89
2022/04/07 12:50:56;;;;;;;;;;;10.90;92.00;;;;;;6240329;22;19986;-90
2022/04/07 12:53:50;;;;;;;;;;;10.80;91.80;;;;;;6252469;22;19903;-89
2022/04/07 12:56:35;;;;;;;;;;;10.80;91.90;;;;;;6278660;22;19904;-90
2022/04/07 12:59:20;;;;;;;;;;;10.90;91.90;;;;;;6228284;22;19999;-89
2022/04/07 13:02:04;;;;;;;;;;;;;;;;;;;;;
2022/04/07 13:05:18;;;;;;;;;;;;;;;;;;;;;
2022/04/07 13:08:02;;;;;;;;;;;11.20;91.70;;;;;;6125496;23;20276;-89
2022/04/07 13:11:11;;;;;;;;;;;11.30;91.60;;;;;;6227840;22;20306;-88
2022/04/07 13:13:56;;;;;;;;;;;11.30;91.20;;;;;;6275174;22;20329;-91
2022/04/07 13:19:47;;;;;;;;;;;11.40;90.80;;;;;;6239256;22;19918;-88
2022/04/07 13:24:58;;;;;;;;;;;11.40;89.30;;;;;;6262150;22;19926;-90
2022/04/07 13:27:35;;;;;;;;;;;11.40;89.10;;;;;;6251742;22;19903;-88
2022/04/07 13:30:24;;;;;;;;;;;11.40;89.00;;;;;;6228809;22;19907;-89
2022/04/07 13:36:11;;;;;;;;;;;;;;;;;;;;;
2022/04/07 13:38:44;;;;;;;;;;;11.40;89.00;;;;;;6280930;22;19979;-90
2022/04/07 13:41:20;;;;;;;;;;;11.40;89.00;;;;;;6253292;22;20326;-90
2022/04/07 13:44:37;;;;;;;;;;;11.40;88.70;;;;;;6228866;22;19908;-88
2022/04/07 13:47:14;;;;;;;;;;;11.40;88.70;;;;;;6240772;22;19907;-91
2022/04/07 13:50:09;;;;;;;;;;;11.50;88.60;;;;;;6253501;22;19903;-89
2022/04/07 13:52:51;;;;;;;;;;;11.50;87.10;;;;;;6253690;22;20352;-89
2022/04/07 13:55:44;;;;;;;;;;;11.50;87.30;;;;;;6252612;22;19907;-90
2022/04/07 14:01:31;;;;;;;;;;;11.60;87.30;;;;;;6280363;22;19933;-89
2022/04/07 14:04:30;;;;;;;;;;;11.70;87.70;;;;;;6242733;22;19904;-89
2022/04/07 14:07:18;;;;;;;;;;;11.70;87.30;;;;;;6253715;22;20302;-89
2022/04/07 14:10:06;;;;;;;;;;;11.70;86.60;;;;;;6254072;22;19985;-89
2022/04/07 14:12:58;;;;;;;;;;;11.70;85.90;;;;;;6263596;22;19899;-89
2022/04/07 14:15:28;;;;;;;;;;;11.70;87.00;;;;;;6280260;22;19895;-89
2022/04/07 14:18:08;;;;;;;;;;;11.70;87.00;;;;;;6256107;22;19939;-90
2022/04/07 14:20:40;;;;;;;;;;;11.80;86.50;;;;;;6280295;22;19938;-90
2022/04/07 14:26:43;;;;;;;;;;;11.80;87.50;;;;;;6258478;22;19910;-89
2022/04/07 14:29:34;;;;;;;;;;;11.70;86.30;;;;;;6248914;22;19986;-88
2022/04/07 14:32:08;;;;;;;;;;;11.70;87.20;;;;;;6230389;22;19907;-91
2022/04/07 14:37:55;;;;;;;;;;;;;;;;;;;;;
2022/04/07 14:40:38;;;;;;;;;;;;;;;;;;;;;
2022/04/07 14:46:11;;;;;;;;;;;;;;;;;;;;;
2022/04/07 14:52:03;;;;;;;;;;;;;;;;;;;;;
2022/04/07 14:54:39;;;;;;;;;;;;;;;;;;;;;
2022/04/07 15:03:21;;;;;;;;;;;;;;;;;;;;;
2022/04/07 15:05:55;;;;;;;;;;;11.60;87.50;;;;;;6279810;22;19994;-89
2022/04/07 15:08:42;;;;;;;;;;;11.60;87.80;;;;;;6252808;22;19925;-88
2022/04/07 15:11:30;;;;;;;;;;;11.60;88.20;;;;;;6278499;22;19990;-90
2022/04/07 15:20:10;;;;;;;;;;;11.80;87.20;;;;;;6279352;22;19903;-89
2022/04/07 15:23:01;;;;;;;;;;;11.80;86.80;;;;;;6252752;22;19911;-90
2022/04/07 15:25:32;;;;;;;;;;;11.80;85.90;;;;;;6235152;22;20357;-89
2022/04/07 15:28:06;;;;;;;;;;;11.80;85.40;;;;;;6252581;22;19907;-89
2022/04/07 15:30:52;;;;;;;;;;;11.80;86.10;;;;;;6228092;22;19927;-90
2022/04/07 15:33:24;;;;;;;;;;;11.80;86.10;;;;;;6278961;22;19915;-89
2022/04/07 15:36:25;;;;;;;;;;;;;;;;;;;;;
2022/04/07 15:39:11;;;;;;;;;;;11.80;86.50;;;;;;6279512;22;19990;-90
2022/04/07 15:48:13;;;;;;;;;;;11.60;86.30;;;;;;6156855;23;19936;-89
2022/04/07 15:51:11;;;;;;;;;;;;;;;;;;;;;
2022/04/07 15:54:00;;;;;;;;;;;11.50;86.80;;;;;;6183632;23;19921;-90
2022/04/07 15:56:35;;;;;;;;;;;11.50;87.10;;;;;;6233832;22;19895;-89
2022/04/07 16:02:18;;;;;;;;;;;11.40;87.20;;;;;;6279368;22;19911;-88
2022/04/07 16:04:54;;;;;;;;;;;;;;;;;;;;;
2022/04/07 16:10:51;;;;;;;;;;;11.00;88.40;;;;;;6266696;22;19918;-89
2022/04/07 16:14:08;;;;;;;;;;;;;;;;;;;;;
2022/04/07 16:16:43;;;;;;;;;;;;;;;;;;;;;
2022/04/07 16:19:14;;;;;;;;;;;10.40;90.60;;;;;;6277899;22;19985;-88
2022/04/07 16:21:42;;;;;;;;;;;10.30;90.80;;;;;;6250018;22;20381;-88
2022/04/07 16:24:07;;;;;;;;;;;10.20;91.10;;;;;;6249984;22;19919;-88
2022/04/07 16:26:40;;;;;;;;;;;10.20;91.30;;;;;;6250217;22;19907;-88
2022/04/07 16:29:35;;;;;;;;;;;;;;;;;;;;;
2022/04/07 16:32:04;;;;;;;;;;;10.20;91.40;;;;;;6253624;22;19990;-89
2022/04/07 16:35:05;;;;;;;;;;;10.20;91.40;;;;;;6277320;22;19907;-89
2022/04/07 16:37:26;;;;;;;;;;;10.30;91.30;;;;;;6251369;22;19966;-88
2022/04/07 16:40:28;;;;;;;;;;;10.30;90.70;;;;;;6250132;22;19903;-89
2022/04/07 16:46:29;;;;;;;;;;;10.40;90.40;;;;;;6277758;22;19931;-88
2022/04/07 16:48:57;;;;;;;;;;;10.50;90.10;;;;;;6251566;22;20357;-90
2022/04/07 16:51:43;;;;;;;;;;;10.50;90.60;;;;;;6225400;22;20006;-89
2022/04/07 16:54:32;;;;;;;;;;;10.50;90.90;;;;;;6226530;22;20367;-89
2022/04/07 16:57:17;;;;;;;;;;;;;;;;;;;;;
2022/04/07 17:00:12;;;;;;;;;;;10.40;91.40;;;;;;6277807;22;19978;-88
2022/04/07 17:02:58;;;;;;;;;;;10.30;91.50;;;;;;6255085;22;19953;-89
2022/04/07 17:06:07;;;;;;;;;;;10.30;91.60;;;;;;6256757;22;19970;-89
2022/04/07 17:08:34;;;;;;;;;;;10.20;92.00;;;;;;6282980;22;19907;-89
2022/04/07 17:14:33;;;;;;;;;;;9.70;93.20;;;;;;6280849;22;20318;-91
2022/04/07 17:17:26;;;;;;;;;;;9.40;93.60;;;;;;6258735;22;19983;-91
2022/04/07 17:20:08;;;;;;;;;;;9.30;94.00;;;;;;6257953;22;19910;-90
2022/04/07 17:22:44;;;;;;;;;;;9.20;94.20;;;;;;6259348;22;20301;-90
2022/04/07 17:25:27;;;;;;;;;;;;;;;;;;;;;
2022/04/07 17:31:00;;;;;;;;;;;;;;;;;;;;;
2022/04/07 17:33:45;;;;;;;;;;;;;;;;;;;;;
2022/04/07 17:36:25;;;;;;;;;;;9.10;94.80;;;;;;6253872;22;19947;-89
2022/04/07 17:39:00;;;;;;;;;;;9.00;94.70;;;;;;6256839;22;19957;-89
2022/04/07 17:41:37;;;;;;;;;;;9.00;94.80;;;;;;6232300;22;20325;-90
2022/04/07 17:44:29;;;;;;;;;;;9.00;94.90;;;;;;6258157;22;20321;-91
2022/04/07 17:47:00;;;;;;;;;;;8.90;95.00;;;;;;6258599;22;19903;-89
2022/04/07 17:52:21;;;;;;;;;;;9.00;95.20;;;;;;6263248;22;20277;-88
2022/04/07 17:54:58;;;;;;;;;;;;;;;;;;;;;
2022/04/07 17:57:33;;;;;;;;;;;9.00;95.10;;;;;;6283566;22;19930;-90
2022/04/07 18:00:19;;;;;;;;;;;8.90;95.20;;;;;;6233087;22;19914;-90
2022/04/07 18:02:58;;;;;;;;;;;9.00;95.30;;;;;;6239171;22;19911;-90
2022/04/07 18:05:44;;;;;;;;;;;9.00;95.20;;;;;;6257268;22;19910;-89
2022/04/07 18:11:06;;;;;;;;;;;9.00;95.30;;;;;;6109959;23;19920;-90
2022/04/07 18:14:00;;;;;;;;;;;;;;;;;;;;;
2022/04/07 18:16:30;;;;;;;;;;;9.00;95.40;;;;;;6221426;23;19939;-90
2022/04/07 18:19:14;;;;;;;;;;;9.00;95.40;;;;;;6225682;23;19907;-89
2022/04/07 18:21:57;;;;;;;;;;;;;;;;;;;;;
2022/04/07 18:24:50;;;;;;;;;;;9.00;95.40;;;;;;6229660;23;19928;-89
2022/04/07 18:27:22;;;;;;;;;;;9.00;95.40;;;;;;6251975;23;19904;-89
2022/04/07 18:30:08;;;;;;;;;;;9.00;95.40;;;;;;6251386;23;19915;-90
2022/04/07 18:32:59;;;;;;;;;;;9.00;95.50;;;;;;6219701;23;19903;-91
2022/04/07 18:35:46;;;;;;;;;;;9.10;95.50;;;;;;6228388;23;19903;-91
2022/04/07 18:38:40;;;;;;;;;;;9.10;95.60;;;;;;6226870;23;19939;-89
2022/04/07 18:44:11;;;;;;;;;;;9.10;95.90;;;;;;6215644;23;19914;-89
2022/04/07 18:46:43;;;;;;;;;;;9.10;96.10;;;;;;6252719;23;19926;-87
2022/04/07 18:49:23;;;;;;;;;;;9.00;96.10;;;;;;6204614;23;19911;-90
2022/04/07 18:52:06;;;;;;;;;;;;;;;;;;;;;
2022/04/07 18:54:40;;;;;;;;;;;9.00;96.20;;;;;;6230553;23;19939;-90
2022/04/07 18:57:23;;;;;;;;;;;9.00;96.20;;;;;;6252916;23;20356;-89
2022/04/07 18:59:51;;;;;;;;;;;9.00;96.30;;;;;;6265108;22;19919;-90
2022/04/07 19:02:29;;;;;;;;;;;9.00;96.30;;;;;;6250074;22;19900;-89
2022/04/07 19:05:12;;;;;;;;;;;9.00;96.20;;;;;;6241855;22;19910;-89
2022/04/07 19:10:35;;;;;;;;;;;9.00;96.20;;;;;;6227134;23;19908;-88
2022/04/07 19:13:28;;;;;;;;;;;;;;;;;;;;;
2022/04/07 19:16:01;;;;;;;;;;;9.00;96.00;;;;;;6283711;22;19937;-89
2022/04/07 19:18:36;;;;;;;;;;;9.10;95.90;;;;;;6283258;22;19907;-89
2022/04/07 19:21:14;;;;;;;;;;;;;;;;;;;;;
2022/04/07 19:23:59;;;;;;;;;;;9.10;95.80;;;;;;6259865;22;20392;-91
2022/04/07 19:26:48;;;;;;;;;;;9.00;95.90;;;;;;6257650;22;19903;-89
2022/04/07 19:29:47;;;;;;;;;;;;;;;;;;;;;
2022/04/07 19:32:16;;;;;;;;;;;8.80;96.40;;;;;;6273032;22;19927;-88
2022/04/07 19:34:42;;;;;;;;;;;8.70;96.50;;;;;;6256788;22;19907;-88
2022/04/07 19:37:37;;;;;;;;;;;8.60;96.60;;;;;;6257503;22;20037;-90
2022/04/07 19:40:03;;;;;;;;;;;8.60;96.70;;;;;;6242957;22;20491;-89
2022/04/07 19:42:51;;;;;;;;;;;8.60;96.60;;;;;;6256694;22;19911;-90
2022/04/07 19:45:38;;;;;;;;;;;8.60;96.60;;;;;;6284410;22;19899;-90
2022/04/07 19:48:21;;;;;;;;;;;8.50;96.70;;;;;;6241336;22;19904;-89
2022/04/07 19:50:58;;;;;;;;;;;8.50;96.90;;;;;;6256984;22;19903;-90
2022/04/07 19:53:26;;;;;;;;;;;8.50;97.00;;;;;;6255754;22;19907;-90
2022/04/07 19:55:52;;;;;;;;;;;8.40;97.10;;;;;;6255486;22;19910;-89
2022/04/07 19:58:30;;;;;;;;;;;8.40;97.00;;;;;;6254756;22;19930;-90
2022/04/07 20:01:08;;;;;;;;;;;;;;;;;;;;;
2022/04/07 20:03:46;;;;;;;;;;;8.30;97.10;;;;;;6283017;22;19934;-91
2022/04/07 20:06:19;;;;;;;;;;;8.30;97.10;;;;;;6254834;22;19926;-87
2022/04/07 20:08:45;;;;;;;;;;;8.30;97.10;;;;;;6250960;22;19951;-87
2022/04/07 20:11:11;;;;;;;;;;;8.30;97.00;;;;;;6251382;22;19943;-87
2022/04/07 20:13:44;;;;;;;;;;;8.30;97.10;;;;;;6244603;23;19938;-88
2022/04/07 20:16:12;;;;;;;;;;;8.20;97.10;;;;;;6245937;23;19907;-88
2022/04/07 20:18:42;;;;;;;;;;;8.20;97.20;;;;;;6245806;23;19908;-88
2022/04/07 20:21:13;;;;;;;;;;;8.10;97.30;;;;;;6246861;23;19952;-88
2022/04/07 20:24:02;;;;;;;;;;;8.10;97.40;;;;;;6246871;23;19904;-87
2022/04/07 20:26:40;;;;;;;;;;;8.10;97.50;;;;;;6247924;23;19930;-88
2022/04/07 20:29:17;;;;;;;;;;;8.10;97.60;;;;;;6284191;22;19903;-87
2022/04/07 20:31:49;;;;;;;;;;;8.20;97.60;;;;;;6303944;22;19933;-91
2022/04/07 20:34:30;;;;;;;;;;;;;;;;;;;;;
2022/04/07 20:37:00;;;;;;;;;;;8.20;97.50;;;;;;6304109;22;19915;-88
2022/04/07 20:39:28;;;;;;;;;;;8.20;97.50;;;;;;6258604;22;19903;-89
2022/04/07 20:42:08;;;;;;;;;;;8.30;97.60;;;;;;6250840;22;19920;-88
2022/04/07 20:44:39;;;;;;;;;;;8.30;97.50;;;;;;6228552;22;19989;-89
2022/04/07 20:47:07;;;;;;;;;;;8.30;97.50;;;;;;6252146;22;20229;-88
2022/04/07 20:49:36;;;;;;;;;;;8.20;97.50;;;;;;6226605;22;19907;-88
2022/04/07 20:52:02;;;;;;;;;;;8.20;97.50;;;;;;6251245;22;19941;-88
2022/04/07 20:54:44;;;;;;;;;;;;;;;;;;;;;
2022/04/07 20:57:12;;;;;;;;;;;8.30;97.80;;;;;;6279201;22;19994;-89
2022/04/07 20:59:48;;;;;;;;;;;8.20;97.70;;;;;;6251689;22;19957;-88
2022/04/07 21:02:26;;;;;;;;;;;;;;;;;;;;;
2022/04/07 21:05:00;;;;;;;;;;;8.30;97.70;;;;;;6253771;22;19978;-87
2022/04/07 21:07:26;;;;;;;;;;;8.30;97.80;;;;;;6278445;22;20314;-88
2022/04/07 21:10:19;;;;;;;;;;;8.30;97.80;;;;;;6251432;22;19904;-88
2022/04/07 21:13:00;;;;;;;;;;;8.30;97.80;;;;;;6251349;22;19939;-88
2022/04/07 21:18:27;;;;;;;;;;;8.30;97.80;;;;;;6256492;22;19907;-88
2022/04/07 21:21:03;;;;;;;;;;;8.30;97.80;;;;;;6250292;22;19912;-88
2022/04/07 21:23:39;;;;;;;;;;;8.30;97.80;;;;;;6227005;22;20325;-88
2022/04/07 21:26:16;;;;;;;;;;;8.30;97.80;;;;;;6226581;22;20296;-87
2022/04/07 21:28:52;;;;;;;;;;;;;;;;;;;;;
2022/04/07 21:31:24;;;;;;;;;;;8.30;97.70;;;;;;6278370;22;20389;-89
2022/04/07 21:34:02;;;;;;;;;;;8.20;97.60;;;;;;6250721;22;19904;-88
2022/04/07 21:36:31;;;;;;;;;;;8.20;97.60;;;;;;6251873;22;19914;-89
2022/04/07 21:39:09;;;;;;;;;;;8.20;97.50;;;;;;6251051;22;19925;-89
2022/04/07 21:41:48;;;;;;;;;;;8.20;97.50;;;;;;6251780;22;19919;-88
2022/04/07 21:44:39;;;;;;;;;;;8.20;97.50;;;;;;6227163;22;20333;-88
2022/04/07 21:47:14;;;;;;;;;;;;;;;;;;;;;
2022/04/07 21:49:43;;;;;;;;;;;8.20;97.50;;;;;;6278453;22;19974;-88
2022/04/07 21:52:28;;;;;;;;;;;8.20;97.50;;;;;;6251315;22;19953;-88
2022/04/07 21:54:56;;;;;;;;;;;8.20;97.50;;;;;;6228247;22;19908;-88
2022/04/07 21:57:22;;;;;;;;;;;8.10;97.40;;;;;;6258713;22;19907;-88
2022/04/07 21:59:47;;;;;;;;;;;8.10;97.40;;;;;;6262494;22;19923;-92
2022/04/07 22:02:13;;;;;;;;;;;8.10;97.30;;;;;;6276980;22;19911;-88
2022/04/07 22:04:44;;;;;;;;;;;8.10;97.30;;;;;;6278030;22;19903;-88